Time;durP1;ratioP1;P1;durP2;ratioP2;P2;SDS_P1;SDS_P2;PMS_P1;PMS_P2;Temp;Humidity;BMP_temperature;BMP_pressure;BME280_temperature;BME280_humidity;BME280_pressure;Samples;Min_cycle;Max_cycle;Signal;HPM_P1;HPM_P2
2021/12/18 00:00:25;;;;;;;27.73;13.60;;;7.20;99.90;;;;;;7260346;32;20166;-83
2021/12/18 00:04:27;;;;;;;29.95;14.40;;;7.10;99.90;;;;;;7272332;32;20169;-83
2021/12/18 00:08:30;;;;;;;25.17;13.75;;;7.20;99.90;;;;;;7246012;32;20105;-83
2021/12/18 00:12:32;;;;;;;29.27;14.20;;;7.20;99.90;;;;;;7270988;32;20160;-84
2021/12/18 00:16:34;;;;;;;29.15;13.62;;;7.30;99.90;;;;;;7259051;32;20842;-83
2021/12/18 00:20:37;;;;;;;26.95;14.75;;;7.30;99.90;;;;;;7245519;32;20529;-82
2021/12/18 00:24:46;;;;;;;28.30;14.13;;;7.30;99.90;;;;;;7258608;32;20355;-82
2021/12/18 00:28:49;;;;;;;29.45;14.77;;;7.40;99.90;;;;;;7256389;32;20207;-82
2021/12/18 00:32:50;;;;;;;30.65;14.75;;;7.30;99.90;;;;;;7243419;32;20207;-82
2021/12/18 00:36:52;;;;;;;28.77;14.70;;;7.20;99.90;;;;;;7259621;32;20126;-83
2021/12/18 00:41:11;;;;;;;34.63;15.88;;;7.20;99.90;;;;;;7237958;32;20501;-83
2021/12/18 00:45:15;;;;;;;29.05;14.48;;;7.20;99.90;;;;;;7252008;32;20493;-82
2021/12/18 00:49:19;;;;;;;30.83;14.63;;;7.30;99.90;;;;;;7251179;32;20117;-82
2021/12/18 00:53:21;;;;;;;34.13;16.12;;;7.20;99.90;;;;;;7238757;32;20211;-82
2021/12/18 00:57:22;;;;;;;34.47;15.80;;;7.20;99.90;;;;;;7266463;32;20585;-82
2021/12/18 01:01:27;;;;;;;32.15;15.15;;;7.20;99.90;;;;;;7241787;32;20138;-82
2021/12/18 01:05:31;;;;;;;37.20;16.23;;;7.20;99.90;;;;;;7266725;32;20132;-82
2021/12/18 01:22:48;;;;;;;38.60;17.08;;;7.30;99.90;;;;;;7253787;32;20113;-82
2021/12/18 01:26:50;;;;;;;45.47;17.67;;;7.20;99.90;;;;;;7244278;32;20801;-82
2021/12/18 01:30:52;;;;;;;39.38;17.75;;;7.20;99.90;;;;;;7264201;32;20105;-82
2021/12/18 01:34:55;;;;;;;39.22;16.75;;;7.20;99.90;;;;;;7251126;32;20132;-82
2021/12/18 01:38:57;;;;;;;37.15;18.12;;;7.20;99.90;;;;;;7238732;32;20165;-82
2021/12/18 01:51:16;;;;;;;41.42;18.83;;;7.20;99.90;;;;;;7251120;32;20158;-82
2021/12/18 01:55:49;;;;;;;43.35;18.98;;;7.20;99.90;;;;;;7251807;32;20116;-82
2021/12/18 01:59:51;;;;;;;44.15;19.00;;;7.20;99.90;;;;;;7265193;32;20218;-83
2021/12/18 02:03:53;;;;;;;47.95;20.73;;;7.20;99.90;;;;;;7252853;32;20179;-83
2021/12/18 02:07:56;;;;;;;45.65;19.80;;;7.20;99.90;;;;;;7253441;32;20384;-83
2021/12/18 02:11:59;;;;;;;45.10;19.77;;;7.20;99.90;;;;;;7255492;32;20116;-82
2021/12/18 02:20:41;;;;;;;42.58;20.88;;;7.20;99.90;;;;;;7235117;32;20195;-82
2021/12/18 02:24:43;;;;;;;46.80;20.92;;;7.10;99.90;;;;;;7253551;32;20142;-82
2021/12/18 02:28:48;;;;;;;40.75;19.15;;;7.20;99.90;;;;;;7235497;32;20108;-82
2021/12/18 02:32:51;;;;;;;47.65;20.95;;;7.20;99.90;;;;;;7250795;32;20582;-83
2021/12/18 02:36:58;;;;;;;45.85;21.62;;;7.20;99.90;;;;;;7250779;32;20168;-81
2021/12/18 02:41:13;;;;;;;42.60;21.00;;;7.30;99.90;;;;;;7247416;32;20125;-82
2021/12/18 02:45:15;;;;;;;45.53;21.10;;;7.30;99.90;;;;;;7235466;32;20726;-82
2021/12/18 02:49:17;;;;;;;43.42;20.23;;;7.30;99.90;;;;;;7263349;32;20194;-82
2021/12/18 02:53:18;;;;;;;40.12;19.10;;;7.20;99.90;;;;;;7246863;32;20109;-82
2021/12/18 02:57:20;;;;;;;43.83;20.83;;;7.30;99.90;;;;;;7253689;32;20660;-82
2021/12/18 03:01:25;;;;;;;43.00;21.23;;;7.20;99.90;;;;;;7252642;32;20116;-82
2021/12/18 03:05:34;;;;;;;44.25;20.42;;;7.20;99.90;;;;;;7265399;32;20161;-82
2021/12/18 03:23:47;;;;;;;50.38;20.48;;;7.20;99.90;;;;;;7289944;32;20061;-81
2021/12/18 03:27:40;;;;;;;41.28;20.52;;;7.20;99.90;;;;;;7284042;32;20119;-82
2021/12/18 03:31:42;;;;;;;43.08;19.75;;;7.20;99.90;;;;;;7287452;32;20243;-82
2021/12/18 03:35:45;;;;;;;47.13;20.67;;;7.20;99.90;;;;;;7282083;32;20206;-82
2021/12/18 03:39:47;;;;;;;42.15;19.60;;;7.20;99.90;;;;;;7276695;32;20076;-82
2021/12/18 03:43:49;;;;;;;42.15;18.95;;;7.20;99.90;;;;;;7301838;32;20073;-82
2021/12/18 03:47:52;;;;;;;42.50;19.23;;;7.20;99.90;;;;;;7298959;32;20088;-82
2021/12/18 03:51:54;;;;;;;46.30;20.12;;;7.10;99.90;;;;;;7264206;32;20644;-83
2021/12/18 03:55:56;;;;;;;44.35;21.20;;;7.10;99.90;;;;;;7260485;32;20124;-82
2021/12/18 03:59:57;;;;;;;40.70;20.37;;;7.30;99.90;;;;;;7256507;32;20143;-82
2021/12/18 04:03:59;;;;;;;41.28;19.60;;;7.30;99.90;;;;;;7258824;32;20203;-82
2021/12/18 04:08:08;;;;;;;42.55;20.55;;;7.30;99.90;;;;;;7254723;32;20133;-82
2021/12/18 04:12:10;;;;;;;43.15;19.65;;;7.20;99.90;;;;;;7251380;32;20108;-82
2021/12/18 04:16:12;;;;;;;34.85;18.25;;;7.20;99.90;;;;;;7269553;32;20217;-82
2021/12/18 04:20:16;;;;;;;33.15;17.33;;;7.10;99.90;;;;;;7265814;32;20169;-81
2021/12/18 04:24:17;;;;;;;32.28;15.02;;;7.20;99.90;;;;;;7254055;32;20140;-81
2021/12/18 04:28:19;;;;;;;27.85;15.98;;;7.30;99.90;;;;;;7253130;32;20558;-81
2021/12/18 04:32:21;;;;;;;27.13;15.25;;;7.20;99.90;;;;;;7255047;32;20109;-81
2021/12/18 04:36:23;;;;;;;28.10;15.48;;;7.20;99.90;;;;;;7244087;32;20112;-81
2021/12/18 04:40:26;;;;;;;28.73;16.20;;;7.10;99.90;;;;;;7254932;32;20136;-82
2021/12/18 04:44:28;;;;;;;27.87;14.38;;;7.10;99.90;;;;;;7253704;32;20516;-82
2021/12/18 04:48:30;;;;;;;25.90;13.93;;;7.00;99.90;;;;;;7252238;32;20182;-81
2021/12/18 04:52:31;;;;;;;29.83;14.77;;;7.00;99.90;;;;;;7240599;32;20278;-82
2021/12/18 04:56:34;;;;;;;27.25;13.30;;;7.00;99.90;;;;;;7267523;32;20192;-82
2021/12/18 05:00:41;;;;;;;26.80;13.35;;;6.90;99.90;;;;;;7261016;32;20177;-82
2021/12/18 05:04:42;;;;;;;;;;;7.00;99.90;;;;;;7243558;32;20203;-82
2021/12/18 05:08:44;;;;;;;28.40;14.43;;;7.00;99.90;;;;;;7240078;32;20048;-83
2021/12/18 05:12:46;;;;;;;27.33;14.00;;;7.00;99.90;;;;;;7236550;32;20167;-82
2021/12/18 05:16:48;;;;;;;30.90;15.40;;;7.00;99.90;;;;;;7240991;32;20187;-83
2021/12/18 05:20:50;;;;;;;30.62;15.05;;;7.10;99.90;;;;;;7250825;32;20183;-82
2021/12/18 05:24:52;;;;;;;27.23;13.48;;;7.10;99.90;;;;;;7250188;32;20176;-81
2021/12/18 05:28:53;;;;;;;24.42;13.73;;;7.10;99.90;;;;;;7274193;32;20287;-82
2021/12/18 05:32:55;;;;;;;27.75;13.82;;;7.10;99.90;;;;;;7263765;32;20128;-81
2021/12/18 05:40:59;;;;;;;31.05;15.00;;;7.20;99.90;;;;;;7254897;32;20108;-82
2021/12/18 05:45:00;;;;;;;28.17;14.52;;;7.10;99.90;;;;;;7269510;32;20136;-82
2021/12/18 05:49:03;;;;;;;28.02;13.55;;;7.00;99.90;;;;;;7255824;32;20852;-82
2021/12/18 05:53:05;;;;;;;31.80;14.60;;;7.00;99.90;;;;;;7247794;32;20136;-82
2021/12/18 05:57:09;;;;;;;30.27;15.07;;;7.00;99.90;;;;;;7254343;32;20226;-82
2021/12/18 06:01:12;;;;;;;27.37;13.70;;;7.00;99.90;;;;;;7254698;32;20168;-82
2021/12/18 06:05:14;;;;;;;31.70;14.30;;;6.90;99.90;;;;;;7265394;32;20191;-82
2021/12/18 06:09:16;;;;;;;30.00;13.75;;;6.90;99.90;;;;;;7259652;32;20112;-83
2021/12/18 06:13:18;;;;;;;28.95;13.57;;;6.90;99.90;;;;;;7253182;32;20121;-82
2021/12/18 06:17:20;;;;;;;29.70;13.98;;;7.00;99.90;;;;;;7266469;32;20667;-82
2021/12/18 06:21:22;;;;;;;27.55;12.75;;;7.10;99.90;;;;;;7236586;32;20128;-82
2021/12/18 06:25:24;;;;;;;27.48;13.32;;;7.10;99.90;;;;;;7248763;32;20148;-82
2021/12/18 06:29:26;;;;;;;29.23;13.82;;;7.10;99.90;;;;;;7247244;32;20188;-83
2021/12/18 06:33:28;;;;;;;25.20;12.40;;;7.10;99.90;;;;;;7245097;32;20148;-84
2021/12/18 06:37:30;;;;;;;26.30;13.45;;;7.10;99.90;;;;;;7256339;32;20239;-82
2021/12/18 06:41:33;;;;;;;27.62;13.35;;;7.10;99.90;;;;;;7241507;32;20227;-83
2021/12/18 06:45:34;;;;;;;30.20;14.07;;;7.20;99.90;;;;;;7274369;32;20200;-83
2021/12/18 06:49:36;;;;;;;29.15;13.25;;;7.20;99.90;;;;;;7243780;32;20125;-83
2021/12/18 06:53:38;;;;;;;30.73;14.07;;;7.10;99.90;;;;;;7278299;32;20107;-83
2021/12/18 06:57:41;;;;;;;34.03;14.55;;;7.10;99.90;;;;;;7255296;32;20488;-83
2021/12/18 07:01:44;;;;;;;32.25;13.82;;;7.10;99.90;;;;;;7246925;32;20263;-82
2021/12/18 07:05:47;;;;;;;32.53;14.35;;;7.10;99.90;;;;;;7231817;32;20109;-82
2021/12/18 07:09:49;;;;;;;28.83;13.30;;;7.10;99.90;;;;;;7235624;32;20131;-82
2021/12/18 07:13:51;;;;;;;33.97;15.00;;;7.10;99.90;;;;;;7235528;32;20777;-82
2021/12/18 07:17:54;;;;;;;26.10;13.48;;;7.10;99.90;;;;;;7257481;32;20127;-82
2021/12/18 07:21:56;;;;;;;27.77;13.25;;;7.20;99.90;;;;;;7253832;32;20108;-82
2021/12/18 07:25:57;;;;;;;28.67;13.73;;;7.20;99.90;;;;;;7241935;32;20176;-82
2021/12/18 07:29:59;;;;;;;29.75;13.73;;;7.30;99.90;;;;;;7234536;32;20108;-81
2021/12/18 07:34:01;;;;;;;22.67;9.30;;;7.20;99.90;;;;;;7250197;32;20173;-82
2021/12/18 07:38:03;;;;;;;20.12;8.98;;;7.30;99.90;;;;;;7244943;32;20128;-81
2021/12/18 07:42:05;;;;;;;23.02;9.35;;;7.30;99.90;;;;;;7242739;32;20590;-81
2021/12/18 07:46:07;;;;;;;20.92;8.95;;;7.30;99.90;;;;;;7248820;32;20193;-82
2021/12/18 07:50:17;;;;;;;19.77;9.23;;;7.30;99.90;;;;;;7235837;32;20573;-81
2021/12/18 07:54:19;;;;;;;22.77;8.73;;;7.30;99.90;;;;;;7270823;32;20431;-82
2021/12/18 07:58:21;;;;;;;22.50;9.85;;;7.30;99.90;;;;;;7251613;32;20184;-82
2021/12/18 08:02:23;;;;;;;21.52;9.10;;;7.20;99.90;;;;;;7260232;32;20929;-82
2021/12/18 08:06:25;;;;;;;24.87;9.60;;;7.20;99.90;;;;;;7252454;32;20116;-82
2021/12/18 08:10:27;;;;;;;18.75;8.60;;;7.30;99.90;;;;;;7261749;32;20588;-81
2021/12/18 08:14:29;;;;;;;22.30;8.75;;;7.30;99.90;;;;;;7240787;32;20270;-82
2021/12/18 08:18:31;;;;;;;23.38;8.85;;;7.30;99.90;;;;;;7256798;32;20207;-78
2021/12/18 08:22:32;;;;;;;24.02;9.35;;;7.30;99.90;;;;;;7250383;32;20194;-80
2021/12/18 08:26:34;;;;;;;23.52;9.43;;;7.30;99.90;;;;;;7242792;32;20121;-79
2021/12/18 08:30:38;;;;;;;21.90;8.55;;;7.30;99.90;;;;;;7244879;32;20613;-78
2021/12/18 08:34:40;;;;;;;22.45;9.40;;;7.40;99.90;;;;;;7280011;32;20216;-78
2021/12/18 08:38:42;;;;;;;24.52;9.45;;;7.40;99.90;;;;;;7266956;32;20580;-80
2021/12/18 08:42:44;;;;;;;22.30;10.23;;;7.50;99.90;;;;;;7249719;32;20256;-80
2021/12/18 08:46:46;;;;;;;23.40;9.68;;;7.50;99.90;;;;;;7281181;32;20622;-80
2021/12/18 08:50:48;;;;;;;20.37;8.38;;;7.50;99.90;;;;;;7274283;32;20116;-80
2021/12/18 08:54:50;;;;;;;20.70;9.07;;;7.50;99.90;;;;;;7263556;32;20108;-79
2021/12/18 08:58:53;;;;;;;19.70;8.68;;;7.60;99.90;;;;;;7250168;32;20682;-79
2021/12/18 09:02:57;;;;;;;20.27;9.38;;;7.50;99.90;;;;;;7262074;32;20112;-79
2021/12/18 09:06:59;;;;;;;23.10;8.80;;;7.60;99.90;;;;;;7252844;32;20136;-78
2021/12/18 09:11:01;;;;;;;19.02;8.88;;;7.70;99.90;;;;;;7269962;32;20112;-79
2021/12/18 09:15:04;;;;;;;22.30;9.50;;;7.60;99.90;;;;;;7270502;32;20121;-78
2021/12/18 09:19:05;;;;;;;31.37;11.43;;;7.60;99.90;;;;;;7269744;32;20117;-79
2021/12/18 09:23:08;;;;;;;27.42;13.18;;;7.50;99.90;;;;;;7270753;32;20162;-78
2021/12/18 09:27:10;;;;;;;23.17;10.10;;;7.60;99.90;;;;;;7256393;32;20169;-78
2021/12/18 09:31:12;;;;;;;26.35;10.02;;;7.60;99.90;;;;;;7243276;32;20200;-79
2021/12/18 09:35:14;;;;;;;23.20;10.45;;;7.70;99.90;;;;;;7265972;32;20191;-78
2021/12/18 09:39:16;;;;;;;26.77;10.65;;;7.70;99.90;;;;;;7255596;32;20191;-78
2021/12/18 09:43:18;;;;;;;24.45;11.73;;;7.80;99.90;;;;;;7240604;32;20101;-78
2021/12/18 09:47:20;;;;;;;24.75;12.55;;;7.80;99.90;;;;;;7269040;32;20126;-78
2021/12/18 09:51:27;;;;;;;22.37;9.20;;;7.80;99.90;;;;;;7252968;32;20104;-78
2021/12/18 09:55:29;;;;;;;22.17;10.73;;;7.80;99.90;;;;;;7245414;32;20146;-78
2021/12/18 09:59:30;;;;;;;21.60;9.88;;;7.90;99.90;;;;;;7260866;32;20147;-78
2021/12/18 10:04:00;;;;;;;21.55;10.13;;;7.90;99.90;;;;;;7259285;32;20113;-79
2021/12/18 10:08:15;;;;;;;23.90;9.63;;;8.00;99.90;;;;;;7249776;32;20268;-79
2021/12/18 10:12:23;;;;;;;24.27;10.90;;;8.00;99.90;;;;;;7252393;32;20113;-80
2021/12/18 10:16:27;;;;;;;23.95;10.43;;;8.00;99.90;;;;;;7258284;32;20161;-80
2021/12/18 10:20:29;;;;;;;24.25;9.88;;;7.90;99.90;;;;;;7242317;32;20668;-80
2021/12/18 10:24:33;;;;;;;24.87;10.88;;;8.00;99.90;;;;;;7266886;32;20147;-79
2021/12/18 10:28:45;;;;;;;27.42;10.77;;;8.00;99.90;;;;;;7253823;32;20170;-79
2021/12/18 10:33:10;;;;;;;25.30;10.55;;;8.00;99.90;;;;;;7268725;32;20109;-79
2021/12/18 10:37:14;;;;;;;28.10;10.35;;;7.90;99.90;;;;;;7272769;32;20230;-80
2021/12/18 10:41:21;;;;;;;21.85;10.73;;;7.90;99.90;;;;;;7245195;32;20104;-80
2021/12/18 10:45:25;;;;;;;23.45;10.77;;;8.00;99.90;;;;;;7253879;32;21075;-80
2021/12/18 10:49:38;;;;;;;24.05;11.12;;;8.00;99.90;;;;;;7270047;32;20161;-79
2021/12/18 10:53:40;;;;;;;22.37;9.98;;;8.10;99.90;;;;;;7261927;32;20556;-80
2021/12/18 10:57:51;;;;;;;26.83;11.05;;;8.10;99.90;;;;;;7266164;32;20174;-80
2021/12/18 11:01:56;;;;;;;24.27;11.35;;;8.10;99.90;;;;;;7261755;32;20174;-80
2021/12/18 11:06:08;;;;;;;22.02;10.43;;;8.10;99.90;;;;;;7268957;32;20154;-80
2021/12/18 11:14:52;;;;;;;20.42;9.27;;;8.10;99.90;;;;;;7259780;32;20109;-80
2021/12/18 11:18:55;;;;;;;22.58;10.63;;;8.10;99.90;;;;;;7262536;32;20147;-80
2021/12/18 11:22:57;;;;;;;21.92;11.02;;;8.10;99.90;;;;;;7270844;32;20116;-79
2021/12/18 11:27:07;;;;;;;13.93;7.82;;;8.20;99.90;;;;;;7273038;32;20199;-83
2021/12/18 11:31:09;;;;;;;18.77;9.73;;;8.10;99.90;;;;;;7267972;32;20157;-82
2021/12/18 11:35:14;;;;;;;20.25;9.77;;;8.00;99.90;;;;;;7257040;32;20140;-82
2021/12/18 11:39:19;;;;;;;21.33;9.32;;;8.10;99.90;;;;;;7242726;32;20168;-79
2021/12/18 11:43:32;;;;;;;26.10;12.82;;;8.10;99.90;;;;;;7271294;32;20143;-80
2021/12/18 11:47:35;;;;;;;30.25;15.82;;;8.20;99.90;;;;;;7259937;32;20189;-80
2021/12/18 11:51:38;;;;;;;29.45;15.45;;;8.20;99.90;;;;;;7268313;32;20171;-80
2021/12/18 11:55:49;;;;;;;34.65;16.70;;;8.20;99.90;;;;;;7255877;32;20113;-79
2021/12/18 11:59:51;;;;;;;36.92;17.08;;;8.20;99.90;;;;;;7236935;32;20191;-79
2021/12/18 12:03:53;;;;;;;37.22;18.27;;;8.10;99.90;;;;;;7274271;32;20104;-81
2021/12/18 12:08:31;;;;;;;36.40;18.27;;;8.00;99.90;;;;;;7258781;32;20131;-80
2021/12/18 12:12:52;;;;;;;43.15;19.45;;;8.10;99.90;;;;;;7253216;32;20736;-80
2021/12/18 12:17:12;;;;;;;44.83;21.10;;;8.10;99.90;;;;;;7254294;32;20758;-80
2021/12/18 12:21:44;;;;;;;46.22;21.25;;;8.10;99.90;;;;;;7252133;32;20121;-80
2021/12/18 12:25:51;;;;;;;51.35;22.35;;;8.00;99.90;;;;;;7265887;32;20128;-80
2021/12/18 12:29:53;;;;;;;46.30;22.77;;;8.00;99.90;;;;;;7272384;32;20162;-79
2021/12/18 12:34:23;;;;;;;46.97;22.13;;;7.90;99.90;;;;;;7254583;32;20105;-81
2021/12/18 12:39:07;;;;;;;42.62;20.65;;;7.90;99.90;;;;;;7274669;32;20549;-81
2021/12/18 12:43:15;;;;;;;44.65;19.80;;;7.90;99.90;;;;;;7231331;32;20129;-80
2021/12/18 12:47:27;;;;;;;45.50;21.58;;;7.90;99.90;;;;;;7252775;32;20174;-81
2021/12/18 12:51:58;;;;;;;47.13;21.60;;;7.80;99.90;;;;;;7255413;32;20101;-81
2021/12/18 12:56:14;;;;;;;50.67;22.13;;;7.70;99.90;;;;;;7232220;32;20612;-81
2021/12/18 13:00:22;;;;;;;51.65;21.52;;;7.70;99.90;;;;;;7267111;32;20399;-82
2021/12/18 13:04:23;;;;;;;51.75;21.58;;;7.70;99.90;;;;;;7247250;32;20201;-80
2021/12/18 13:08:26;;;;;;;49.95;21.10;;;7.70;99.90;;;;;;7258716;32;20642;-80
2021/12/18 13:12:28;;;;;;;58.87;21.55;;;7.70;99.90;;;;;;7254075;32;20136;-81
2021/12/18 13:16:30;;;;;;;55.55;22.13;;;7.60;99.90;;;;;;7228174;32;20136;-81
2021/12/18 13:20:48;;;;;;;53.45;21.70;;;7.60;99.90;;;;;;7268751;32;20131;-81
2021/12/18 13:25:08;;;;;;;59.92;20.70;;;7.60;99.90;;;;;;7268626;32;20127;-80
2021/12/18 13:29:16;;;;;;;54.42;21.87;;;7.60;99.90;;;;;;7258369;32;20203;-79
2021/12/18 13:33:24;;;;;;;53.05;20.27;;;7.60;99.90;;;;;;7260824;32;20128;-80
2021/12/18 13:37:25;;;;;;;50.50;19.65;;;7.50;99.90;;;;;;7258650;32;20613;-80
2021/12/18 13:41:27;;;;;;;46.28;18.52;;;7.50;99.90;;;;;;7240259;32;20168;-80
2021/12/18 13:45:29;;;;;;;43.87;18.75;;;7.60;99.90;;;;;;7270316;32;20164;-79
2021/12/18 13:49:31;;;;;;;51.75;22.90;;;7.50;99.90;;;;;;7256209;32;20159;-81
2021/12/18 13:53:34;;;;;;;47.70;22.17;;;7.50;99.90;;;;;;7266882;32;20101;-80
2021/12/18 13:57:36;;;;;;;47.92;21.40;;;7.50;99.90;;;;;;7254540;32;20109;-81
2021/12/18 14:01:38;;;;;;;50.30;22.27;;;7.40;99.90;;;;;;7251776;32;20569;-81
2021/12/18 14:05:40;;;;;;;53.45;25.42;;;7.50;99.90;;;;;;7253805;32;20139;-80
2021/12/18 14:09:42;;;;;;;55.40;25.48;;;7.40;99.90;;;;;;7257660;32;20601;-81
2021/12/18 14:13:55;;;;;;;61.00;24.92;;;7.30;99.90;;;;;;7254283;32;20176;-81
2021/12/18 14:18:00;;;;;;;55.90;24.58;;;7.30;99.90;;;;;;7254735;32;20474;-81
2021/12/18 14:22:05;;;;;;;55.88;23.48;;;7.40;99.90;;;;;;7250661;32;20141;-81
2021/12/18 14:26:27;;;;;;;53.80;22.95;;;7.30;99.90;;;;;;7273023;32;20130;-81
2021/12/18 14:30:33;;;;;;;59.92;24.85;;;7.30;99.90;;;;;;7256543;32;20105;-81
2021/12/18 14:34:37;;;;;;;58.22;23.92;;;7.30;99.90;;;;;;7252625;32;20202;-81
2021/12/18 14:38:56;;;;;;;56.55;22.83;;;7.20;99.90;;;;;;7241956;32;20104;-81
2021/12/18 14:43:06;;;;;;;55.60;24.00;;;7.20;99.90;;;;;;7252950;32;20243;-81
2021/12/18 14:47:11;;;;;;;57.30;23.98;;;7.20;99.90;;;;;;7265421;32;20843;-81
2021/12/18 14:51:25;;;;;;;56.45;22.87;;;7.10;99.90;;;;;;7256443;32;20150;-81
2021/12/18 14:55:28;;;;;;;62.20;25.37;;;7.10;99.90;;;;;;7260689;32;20191;-81
2021/12/18 14:59:30;;;;;;;57.10;23.75;;;7.10;99.90;;;;;;7271719;32;20124;-81
2021/12/18 15:03:46;;;;;;;55.72;23.75;;;7.00;99.90;;;;;;7258526;32;20170;-81
2021/12/18 15:08:05;;;;;;;51.10;21.75;;;7.00;99.90;;;;;;7245447;32;20112;-81
2021/12/18 15:12:07;;;;;;;54.35;23.02;;;6.90;99.90;;;;;;7253760;32;20275;-81
2021/12/18 15:16:26;;;;;;;51.37;23.17;;;6.90;99.90;;;;;;7251538;32;20218;-81
2021/12/18 15:20:28;;;;;;;61.03;24.98;;;6.90;99.90;;;;;;7257725;32;20169;-79
2021/12/18 15:24:32;;;;;;;50.45;23.45;;;6.80;99.90;;;;;;7256183;32;20136;-80
2021/12/18 15:28:34;;;;;;;51.10;22.95;;;6.80;99.90;;;;;;7244271;32;20170;-80
2021/12/18 15:32:36;;;;;;;53.38;24.12;;;6.80;99.90;;;;;;7252688;32;20182;-81
2021/12/18 15:36:42;;;;;;;53.40;24.30;;;6.70;99.90;;;;;;7264192;32;20138;-80
2021/12/18 15:40:44;;;;;;;60.53;25.13;;;6.80;99.90;;;;;;7268561;32;20199;-79
2021/12/18 15:44:47;;;;;;;60.75;25.05;;;6.70;99.90;;;;;;7268988;32;20282;-80
2021/12/18 15:48:49;;;;;;;65.37;26.15;;;6.70;99.90;;;;;;7274275;32;20190;-80
2021/12/18 15:52:53;;;;;;;61.17;27.60;;;6.70;99.90;;;;;;7254396;32;20189;-80
2021/12/18 15:56:55;;;;;;;69.15;28.52;;;6.70;99.90;;;;;;7257777;32;20200;-80
2021/12/18 16:00:59;;;;;;;66.57;28.23;;;6.70;99.90;;;;;;7271368;32;20212;-79
2021/12/18 16:05:01;;;;;;;64.40;28.38;;;6.70;99.90;;;;;;7232306;32;20112;-79
2021/12/18 16:09:03;;;;;;;68.45;25.77;;;6.60;99.90;;;;;;7245912;32;20468;-80
2021/12/18 16:13:07;;;;;;;68.35;26.58;;;6.70;99.90;;;;;;7257908;32;20171;-78
2021/12/18 16:17:09;;;;;;;61.53;25.83;;;6.70;99.90;;;;;;7257081;32;20425;-80
2021/12/18 16:21:12;;;;;;;60.65;25.27;;;6.50;99.90;;;;;;7257631;32;20198;-79
2021/12/18 16:25:16;;;;;;;66.82;27.20;;;6.50;99.90;;;;;;7258550;32;20125;-79
2021/12/18 16:29:18;;;;;;;57.20;23.58;;;6.40;99.90;;;;;;7256829;32;20128;-80
2021/12/18 16:33:27;;;;;;;57.38;24.08;;;6.30;99.90;;;;;;7257120;32;20132;-81
2021/12/18 16:37:31;;;;;;;59.20;23.80;;;6.30;99.90;;;;;;7244842;32;20132;-81
2021/12/18 16:41:33;;;;;;;51.20;22.42;;;6.30;99.90;;;;;;7264372;32;20129;-79
2021/12/18 16:45:38;;;;;;;55.50;22.40;;;6.30;99.90;;;;;;7255889;32;20305;-80
2021/12/18 16:49:44;;;;;;;49.22;21.80;;;6.20;99.90;;;;;;7259127;32;20117;-81
2021/12/18 16:53:51;;;;;;;41.03;18.50;;;6.20;99.90;;;;;;7270221;32;20109;-81
2021/12/18 16:57:55;;;;;;;40.10;18.42;;;6.10;99.90;;;;;;7247687;32;20159;-81
2021/12/18 17:01:57;;;;;;;37.17;17.85;;;6.10;99.90;;;;;;7239359;32;20136;-80
2021/12/18 17:06:00;;;;;;;31.67;16.25;;;6.00;99.90;;;;;;7260009;32;20178;-80
2021/12/18 17:10:05;;;;;;;35.47;17.12;;;5.90;99.90;;;;;;7259173;32;20108;-78
2021/12/18 17:14:07;;;;;;;30.88;15.82;;;6.10;99.90;;;;;;7256177;32;20158;-80
2021/12/18 17:18:10;;;;;;;30.67;15.93;;;6.00;99.90;;;;;;7266710;32;20134;-80
2021/12/18 17:22:13;;;;;;;29.70;15.57;;;6.00;99.90;;;;;;7267604;32;20061;-81
2021/12/18 17:26:15;;;;;;;29.98;16.10;;;6.00;99.90;;;;;;7276033;32;20730;-81
2021/12/18 17:30:19;;;;;;;30.75;15.93;;;6.10;99.90;;;;;;7240395;32;20137;-81
2021/12/18 17:34:21;;;;;;;32.80;16.48;;;6.10;99.90;;;;;;7262541;32;20625;-79
2021/12/18 17:38:23;;;;;;;33.60;17.87;;;6.10;99.90;;;;;;7239837;32;20204;-80
2021/12/18 17:42:25;;;;;;;32.75;18.35;;;6.00;99.90;;;;;;7261212;32;20285;-80
2021/12/18 17:46:27;;;;;;;28.50;17.37;;;6.00;99.90;;;;;;7252619;32;20164;-80
2021/12/18 17:50:30;;;;;;;29.33;17.15;;;6.00;99.90;;;;;;7253818;32;20709;-80
2021/12/18 17:54:33;;;;;;;33.95;19.10;;;6.00;99.90;;;;;;7260126;32;20101;-81
2021/12/18 17:58:35;;;;;;;32.95;19.02;;;6.00;99.90;;;;;;7262248;32;20457;-81
2021/12/18 18:02:37;;;;;;;38.95;23.42;;;6.00;99.90;;;;;;7255329;32;20203;-81
2021/12/18 18:06:40;;;;;;;29.63;18.02;;;6.10;99.90;;;;;;7256851;32;20096;-81
2021/12/18 18:10:42;;;;;;;32.28;19.35;;;6.10;99.90;;;;;;7264045;32;20158;-81
2021/12/18 18:14:45;;;;;;;33.60;18.85;;;6.00;99.90;;;;;;7262832;32;20188;-80
2021/12/18 18:18:47;;;;;;;32.92;19.45;;;5.90;99.90;;;;;;7245206;32;20581;-81
2021/12/18 18:22:49;;;;;;;30.23;17.75;;;5.90;99.90;;;;;;7255414;32;20521;-81
2021/12/18 18:26:52;;;;;;;30.37;17.55;;;5.90;99.90;;;;;;7245040;32;20675;-81
2021/12/18 18:30:54;;;;;;;34.13;19.20;;;5.90;99.90;;;;;;7243922;32;20247;-81
2021/12/18 18:34:57;;;;;;;30.55;17.90;;;5.90;99.90;;;;;;7245356;32;20532;-81
2021/12/18 18:39:04;;;;;;;33.03;18.97;;;5.80;99.90;;;;;;7242430;32;20113;-81
2021/12/18 18:43:10;;;;;;;36.13;21.08;;;5.80;99.90;;;;;;7254171;32;20298;-81
2021/12/18 18:47:20;;;;;;;33.60;19.75;;;5.90;99.90;;;;;;7261296;32;20261;-80
2021/12/18 18:51:23;;;;;;;32.72;19.12;;;5.90;99.90;;;;;;7261861;32;20127;-80
2021/12/18 18:55:25;;;;;;;35.95;20.10;;;6.00;99.90;;;;;;7265966;32;20127;-80
2021/12/18 18:59:28;;;;;;;34.20;20.48;;;5.90;99.90;;;;;;7257890;32;20178;-81
2021/12/18 19:03:30;;;;;;;33.92;20.20;;;6.00;99.90;;;;;;7256181;32;20123;-78
2021/12/18 19:07:32;;;;;;;37.47;20.88;;;6.00;99.90;;;;;;7262427;32;20109;-81
2021/12/18 19:11:35;;;;;;;35.67;22.98;;;6.00;99.90;;;;;;7282174;32;20158;-80
2021/12/18 19:15:37;;;;;;;41.30;26.12;;;6.00;99.90;;;;;;7251693;32;20113;-81
2021/12/18 19:19:51;;;;;;;34.40;20.30;;;6.10;99.90;;;;;;7254989;32;20170;-80
2021/12/18 19:23:53;;;;;;;34.92;19.92;;;6.00;99.90;;;;;;7265494;32;20135;-80
2021/12/18 19:27:55;;;;;;;34.60;20.35;;;6.20;99.90;;;;;;7265534;32;20635;-80
2021/12/18 19:31:58;;;;;;;34.30;19.92;;;6.20;99.90;;;;;;7253427;32;20232;-80
2021/12/18 19:36:00;;;;;;;33.22;20.02;;;6.10;99.90;;;;;;7242790;32;20109;-80
2021/12/18 19:40:03;;;;;;;35.92;20.67;;;6.10;99.90;;;;;;7278628;32;20104;-80
2021/12/18 19:44:05;;;;;;;38.05;19.95;;;6.10;99.90;;;;;;7265300;32;20129;-81
2021/12/18 19:48:21;;;;;;;36.88;20.77;;;6.10;99.90;;;;;;7280535;32;20087;-80
2021/12/18 19:52:24;;;;;;;36.58;20.90;;;6.20;99.90;;;;;;7290060;32;20096;-81
2021/12/18 19:56:26;;;;;;;35.75;20.92;;;6.10;99.90;;;;;;7285698;32;20180;-81
2021/12/18 20:00:30;;;;;;;37.28;21.42;;;6.10;99.90;;;;;;7285276;32;20053;-81
2021/12/18 20:04:33;;;;;;;35.42;20.02;;;6.20;99.90;;;;;;7293677;32;20088;-81
2021/12/18 20:08:35;;;;;;;31.70;19.75;;;6.20;99.90;;;;;;7299104;32;20128;-81
2021/12/18 20:12:38;;;;;;;36.25;19.42;;;6.20;99.90;;;;;;7273439;32;20101;-81
2021/12/18 20:16:40;;;;;;;32.80;18.95;;;6.20;99.90;;;;;;7281704;32;20117;-81
2021/12/18 20:20:42;;;;;;;33.75;19.55;;;6.20;99.90;;;;;;7296080;32;20069;-81
2021/12/18 20:24:45;;;;;;;34.08;19.40;;;6.20;99.90;;;;;;7296076;32;20079;-81
2021/12/18 20:28:47;;;;;;;31.37;18.40;;;6.20;99.90;;;;;;7272926;32;20087;-80
2021/12/18 20:32:50;;;;;;;32.95;19.02;;;6.20;99.90;;;;;;7262589;32;20127;-81
2021/12/18 20:36:54;;;;;;;29.42;17.62;;;6.10;99.90;;;;;;7261827;32;20109;-81
2021/12/18 20:41:00;;;;;;;30.73;18.20;;;6.20;99.90;;;;;;7266068;32;20198;-82
2021/12/18 20:45:02;;;;;;;30.48;18.27;;;6.10;99.90;;;;;;7264900;32;20112;-82
2021/12/18 20:49:05;;;;;;;36.20;19.17;;;6.10;99.90;;;;;;7284890;32;20092;-82
2021/12/18 20:53:07;;;;;;;29.73;17.05;;;6.20;99.90;;;;;;7270310;32;20126;-83
2021/12/18 20:57:10;;;;;;;28.83;17.33;;;6.10;99.90;;;;;;7260784;32;20124;-82
2021/12/18 21:01:14;;;;;;;29.75;17.15;;;6.10;99.90;;;;;;7262997;32;20212;-83
2021/12/18 21:05:17;;;;;;;30.50;17.45;;;6.20;99.90;;;;;;7274453;32;20244;-81
2021/12/18 21:09:19;;;;;;;30.70;16.75;;;6.20;99.90;;;;;;7274736;32;20175;-82
2021/12/18 21:13:22;;;;;;;28.33;16.98;;;6.20;99.90;;;;;;7261845;32;20164;-81
2021/12/18 21:17:24;;;;;;;28.38;16.35;;;6.30;99.90;;;;;;7271491;32;20105;-81
2021/12/18 21:21:27;;;;;;;29.20;16.80;;;6.30;99.90;;;;;;7251058;32;20061;-81
2021/12/18 21:25:29;;;;;;;29.02;16.87;;;6.20;99.90;;;;;;7256832;32;20112;-81
2021/12/18 21:29:31;;;;;;;28.20;16.17;;;6.20;99.90;;;;;;7263211;32;20126;-82
2021/12/18 21:33:45;;;;;;;34.58;18.25;;;6.20;99.90;;;;;;7264735;32;20124;-82
2021/12/18 21:37:47;;;;;;;33.05;18.58;;;6.30;99.90;;;;;;7257014;32;20210;-82
2021/12/18 21:41:55;;;;;;;33.10;18.62;;;6.30;99.90;;;;;;7261838;32;20132;-82
2021/12/18 21:45:58;;;;;;;39.40;19.95;;;6.30;99.90;;;;;;7265754;32;20116;-81